sensor_id;sensor_type;location;lat;lon;timestamp;P1;durP1;ratioP1;P2;durP2;ratioP2
58306;SDS011;44116;50.884;4.768;2022-08-07T00:00:05;4.2;;;2.5;;
58306;SDS011;44116;50.884;4.768;2022-08-07T00:02:03;4.0;;;2.4;;
58306;SDS011;44116;50.884;4.768;2022-08-07T00:04:04;4.5;;;2.6;;
58306;SDS011;44116;50.884;4.768;2022-08-07T00:06:04;6.0;;;2.7;;
58306;SDS011;44116;50.884;4.768;2022-08-07T00:08:04;3.7;;;2.5;;
58306;SDS011;44116;50.884;4.768;2022-08-07T00:10:04;3.9;;;2.2;;
58306;SDS011;44116;50.884;4.768;2022-08-07T00:12:03;5.3;;;2.9;;
58306;SDS011;44116;50.884;4.768;2022-08-07T00:14:02;4.4;;;2.2;;
58306;SDS011;44116;50.884;4.768;2022-08-07T00:16:03;4.2;;;2.8;;
58306;SDS011;44116;50.884;4.768;2022-08-07T00:18:03;4.5;;;2.4;;
58306;SDS011;44116;50.884;4.768;2022-08-07T00:20:04;4.1;;;2.3;;
58306;SDS011;44116;50.884;4.768;2022-08-07T00:22:02;4.3;;;2.1;;
58306;SDS011;44116;50.884;4.768;2022-08-07T00:24:02;3.8;;;2.4;;
58306;SDS011;44116;50.884;4.768;2022-08-07T00:26:04;4.7;;;2.7;;
58306;SDS011;44116;50.884;4.768;2022-08-07T00:28:02;3.4;;;2.4;;
58306;SDS011;44116;50.884;4.768;2022-08-07T00:30:02;6.3;;;2.8;;
58306;SDS011;44116;50.884;4.768;2022-08-07T00:32:02;4.5;;;2.3;;
58306;SDS011;44116;50.884;4.768;2022-08-07T00:34:01;3.3;;;2.2;;
58306;SDS011;44116;50.884;4.768;2022-08-07T00:36:02;4.5;;;2.1;;
58306;SDS011;44116;50.884;4.768;2022-08-07T00:38:01;3.5;;;2.3;;
58306;SDS011;44116;50.884;4.768;2022-08-07T00:40:01;3.0;;;2.2;;
58306;SDS011;44116;50.884;4.768;2022-08-07T00:42:01;4.6;;;2.5;;
58306;SDS011;44116;50.884;4.768;2022-08-07T00:44:01;4.5;;;2.3;;
58306;SDS011;44116;50.884;4.768;2022-08-07T00:46:01;5.2;;;2.5;;
58306;SDS011;44116;50.884;4.768;2022-08-07T00:48:00;4.6;;;2.4;;
58306;SDS011;44116;50.884;4.768;2022-08-07T00:50:01;4.2;;;2.6;;
58306;SDS011;44116;50.884;4.768;2022-08-07T00:52:00;4.2;;;2.4;;
58306;SDS011;44116;50.884;4.768;2022-08-07T00:56:00;4.1;;;2.5;;
58306;SDS011;44116;50.884;4.768;2022-08-07T00:58:01;3.3;;;2.2;;
58306;SDS011;44116;50.884;4.768;2022-08-07T01:00:00;4.6;;;2.5;;
58306;SDS011;44116;50.884;4.768;2022-08-07T01:02:00;4.6;;;2.4;;
58306;SDS011;44116;50.884;4.768;2022-08-07T01:04:03;4.5;;;2.5;;
58306;SDS011;44116;50.884;4.768;2022-08-07T01:05:59;5.0;;;2.4;;
58306;SDS011;44116;50.884;4.768;2022-08-07T01:07:59;3.8;;;2.5;;
58306;SDS011;44116;50.884;4.768;2022-08-07T01:09:59;4.0;;;2.4;;
58306;SDS011;44116;50.884;4.768;2022-08-07T01:12:00;2.9;;;2.2;;
58306;SDS011;44116;50.884;4.768;2022-08-07T01:14:00;5.0;;;2.3;;
58306;SDS011;44116;50.884;4.768;2022-08-07T01:15:59;4.1;;;2.4;;
58306;SDS011;44116;50.884;4.768;2022-08-07T01:17:59;4.2;;;2.3;;
58306;SDS011;44116;50.884;4.768;2022-08-07T01:20:03;2.8;;;2.1;;
58306;SDS011;44116;50.884;4.768;2022-08-07T01:21:59;3.8;;;2.0;;
58306;SDS011;44116;50.884;4.768;2022-08-07T01:23:58;4.3;;;2.2;;
58306;SDS011;44116;50.884;4.768;2022-08-07T01:27:58;5.0;;;2.6;;
58306;SDS011;44116;50.884;4.768;2022-08-07T01:29:58;4.4;;;2.7;;
58306;SDS011;44116;50.884;4.768;2022-08-07T01:31:58;3.7;;;2.4;;
58306;SDS011;44116;50.884;4.768;2022-08-07T01:35:58;4.4;;;2.5;;
58306;SDS011;44116;50.884;4.768;2022-08-07T01:41:57;5.3;;;2.6;;
58306;SDS011;44116;50.884;4.768;2022-08-07T01:45:57;3.8;;;2.1;;
58306;SDS011;44116;50.884;4.768;2022-08-07T01:47:56;4.7;;;2.5;;
58306;SDS011;44116;50.884;4.768;2022-08-07T01:49:56;4.2;;;2.6;;
58306;SDS011;44116;50.884;4.768;2022-08-07T01:51:58;6.3;;;2.5;;
58306;SDS011;44116;50.884;4.768;2022-08-07T01:53:59;4.8;;;2.3;;
58306;SDS011;44116;50.884;4.768;2022-08-07T01:56:01;4.2;;;2.5;;
58306;SDS011;44116;50.884;4.768;2022-08-07T01:57:58;4.4;;;2.6;;
58306;SDS011;44116;50.884;4.768;2022-08-07T01:59:59;3.5;;;2.4;;
58306;SDS011;44116;50.884;4.768;2022-08-07T02:02:00;4.1;;;2.5;;
58306;SDS011;44116;50.884;4.768;2022-08-07T02:03:59;4.5;;;2.6;;
58306;SDS011;44116;50.884;4.768;2022-08-07T02:05:58;4.7;;;2.9;;
58306;SDS011;44116;50.884;4.768;2022-08-07T02:07:57;3.9;;;2.7;;
58306;SDS011;44116;50.884;4.768;2022-08-07T02:13:55;5.3;;;2.8;;
58306;SDS011;44116;50.884;4.768;2022-08-07T02:17:56;5.0;;;3.0;;
58306;SDS011;44116;50.884;4.768;2022-08-07T02:19:55;4.6;;;2.6;;
58306;SDS011;44116;50.884;4.768;2022-08-07T02:21:54;6.2;;;3.1;;
58306;SDS011;44116;50.884;4.768;2022-08-07T02:23:54;5.3;;;2.9;;
58306;SDS011;44116;50.884;4.768;2022-08-07T02:25:55;5.7;;;3.1;;
58306;SDS011;44116;50.884;4.768;2022-08-07T02:27:54;10.7;;;3.7;;
58306;SDS011;44116;50.884;4.768;2022-08-07T02:29:55;5.2;;;3.0;;
58306;SDS011;44116;50.884;4.768;2022-08-07T02:33:53;3.9;;;2.8;;
58306;SDS011;44116;50.884;4.768;2022-08-07T02:37:55;4.8;;;2.9;;
58306;SDS011;44116;50.884;4.768;2022-08-07T02:39:54;5.9;;;3.3;;
58306;SDS011;44116;50.884;4.768;2022-08-07T02:41:53;6.1;;;3.1;;
58306;SDS011;44116;50.884;4.768;2022-08-07T02:45:53;6.2;;;3.4;;
58306;SDS011;44116;50.884;4.768;2022-08-07T02:47:52;6.5;;;3.5;;
58306;SDS011;44116;50.884;4.768;2022-08-07T02:49:52;4.6;;;2.7;;
58306;SDS011;44116;50.884;4.768;2022-08-07T02:51:54;5.3;;;3.3;;
58306;SDS011;44116;50.884;4.768;2022-08-07T02:53:53;4.9;;;3.0;;
58306;SDS011;44116;50.884;4.768;2022-08-07T02:55:52;5.3;;;3.5;;
58306;SDS011;44116;50.884;4.768;2022-08-07T02:57:54;4.4;;;2.9;;
58306;SDS011;44116;50.884;4.768;2022-08-07T02:59:52;5.0;;;3.4;;
58306;SDS011;44116;50.884;4.768;2022-08-07T03:01:52;6.2;;;3.3;;
58306;SDS011;44116;50.884;4.768;2022-08-07T03:03:51;5.7;;;3.2;;
58306;SDS011;44116;50.884;4.768;2022-08-07T03:09:51;5.7;;;3.3;;
58306;SDS011;44116;50.884;4.768;2022-08-07T03:11:50;5.4;;;3.6;;
58306;SDS011;44116;50.884;4.768;2022-08-07T03:13:50;5.0;;;3.1;;
58306;SDS011;44116;50.884;4.768;2022-08-07T03:15:50;7.6;;;3.3;;
58306;SDS011;44116;50.884;4.768;2022-08-07T03:17:50;7.5;;;3.8;;
58306;SDS011;44116;50.884;4.768;2022-08-07T03:19:50;4.3;;;3.1;;
58306;SDS011;44116;50.884;4.768;2022-08-07T03:21:50;4.5;;;3.2;;
58306;SDS011;44116;50.884;4.768;2022-08-07T03:23:50;5.9;;;3.5;;
58306;SDS011;44116;50.884;4.768;2022-08-07T03:25:49;5.9;;;3.6;;
58306;SDS011;44116;50.884;4.768;2022-08-07T03:27:50;5.2;;;3.4;;
58306;SDS011;44116;50.884;4.768;2022-08-07T03:29:50;4.7;;;3.3;;
58306;SDS011;44116;50.884;4.768;2022-08-07T03:31:50;4.5;;;3.5;;
58306;SDS011;44116;50.884;4.768;2022-08-07T03:33:50;5.9;;;4.2;;
58306;SDS011;44116;50.884;4.768;2022-08-07T03:35:49;6.5;;;3.8;;
58306;SDS011;44116;50.884;4.768;2022-08-07T03:37:52;6.0;;;3.9;;
58306;SDS011;44116;50.884;4.768;2022-08-07T03:39:48;5.4;;;3.7;;
58306;SDS011;44116;50.884;4.768;2022-08-07T03:41:48;4.4;;;3.5;;
58306;SDS011;44116;50.884;4.768;2022-08-07T03:47:48;5.2;;;3.3;;
58306;SDS011;44116;50.884;4.768;2022-08-07T03:49:47;6.2;;;3.8;;
58306;SDS011;44116;50.884;4.768;2022-08-07T03:51:47;5.2;;;3.4;;
58306;SDS011;44116;50.884;4.768;2022-08-07T03:53:48;7.1;;;3.8;;
58306;SDS011;44116;50.884;4.768;2022-08-07T03:55:48;5.3;;;3.6;;
58306;SDS011;44116;50.884;4.768;2022-08-07T03:59:47;6.0;;;3.3;;
58306;SDS011;44116;50.884;4.768;2022-08-07T04:01:47;6.2;;;3.5;;
58306;SDS011;44116;50.884;4.768;2022-08-07T04:03:46;5.5;;;3.8;;
58306;SDS011;44116;50.884;4.768;2022-08-07T04:05:46;5.1;;;3.7;;
58306;SDS011;44116;50.884;4.768;2022-08-07T04:07:46;5.5;;;4.2;;
58306;SDS011;44116;50.884;4.768;2022-08-07T04:11:47;6.8;;;4.4;;
58306;SDS011;44116;50.884;4.768;2022-08-07T04:13:46;6.8;;;4.1;;
58306;SDS011;44116;50.884;4.768;2022-08-07T04:15:46;6.5;;;4.0;;
58306;SDS011;44116;50.884;4.768;2022-08-07T04:19:45;4.8;;;3.7;;
58306;SDS011;44116;50.884;4.768;2022-08-07T04:21:45;7.4;;;4.1;;
58306;SDS011;44116;50.884;4.768;2022-08-07T04:25:45;5.9;;;4.2;;
58306;SDS011;44116;50.884;4.768;2022-08-07T04:27:44;10.7;;;4.7;;
58306;SDS011;44116;50.884;4.768;2022-08-07T04:29:44;5.7;;;4.1;;
58306;SDS011;44116;50.884;4.768;2022-08-07T04:31:44;7.3;;;4.5;;
58306;SDS011;44116;50.884;4.768;2022-08-07T04:33:45;5.6;;;4.1;;
58306;SDS011;44116;50.884;4.768;2022-08-07T04:35:44;6.2;;;4.3;;
58306;SDS011;44116;50.884;4.768;2022-08-07T04:37:43;6.2;;;4.0;;
58306;SDS011;44116;50.884;4.768;2022-08-07T04:39:43;6.4;;;4.4;;
58306;SDS011;44116;50.884;4.768;2022-08-07T04:41:43;6.5;;;4.6;;
58306;SDS011;44116;50.884;4.768;2022-08-07T04:43:43;7.0;;;4.7;;
58306;SDS011;44116;50.884;4.768;2022-08-07T04:45:49;7.7;;;4.9;;
58306;SDS011;44116;50.884;4.768;2022-08-07T04:47:51;6.5;;;5.1;;
58306;SDS011;44116;50.884;4.768;2022-08-07T04:49:48;8.6;;;4.7;;
58306;SDS011;44116;50.884;4.768;2022-08-07T04:51:51;5.4;;;4.4;;
58306;SDS011;44116;50.884;4.768;2022-08-07T04:53:47;7.0;;;4.5;;
58306;SDS011;44116;50.884;4.768;2022-08-07T04:55:49;7.1;;;4.7;;
58306;SDS011;44116;50.884;4.768;2022-08-07T04:57:48;6.0;;;4.2;;
58306;SDS011;44116;50.884;4.768;2022-08-07T04:59:47;8.9;;;4.6;;
58306;SDS011;44116;50.884;4.768;2022-08-07T05:01:47;8.3;;;4.4;;
58306;SDS011;44116;50.884;4.768;2022-08-07T05:03:45;7.3;;;4.8;;
58306;SDS011;44116;50.884;4.768;2022-08-07T05:07:48;8.2;;;4.4;;
58306;SDS011;44116;50.884;4.768;2022-08-07T05:09:47;6.7;;;4.3;;
58306;SDS011;44116;50.884;4.768;2022-08-07T05:11:43;6.2;;;4.2;;
58306;SDS011;44116;50.884;4.768;2022-08-07T05:13:46;7.0;;;4.7;;
58306;SDS011;44116;50.884;4.768;2022-08-07T05:15:42;7.3;;;4.3;;
58306;SDS011;44116;50.884;4.768;2022-08-07T05:17:42;7.5;;;4.4;;
58306;SDS011;44116;50.884;4.768;2022-08-07T05:19:43;5.2;;;3.9;;
58306;SDS011;44116;50.884;4.768;2022-08-07T05:21:43;6.2;;;3.6;;
58306;SDS011;44116;50.884;4.768;2022-08-07T05:23:44;7.1;;;4.2;;
58306;SDS011;44116;50.884;4.768;2022-08-07T05:25:41;6.5;;;4.1;;
58306;SDS011;44116;50.884;4.768;2022-08-07T05:27:41;6.3;;;4.6;;
58306;SDS011;44116;50.884;4.768;2022-08-07T05:29:41;6.7;;;4.4;;
58306;SDS011;44116;50.884;4.768;2022-08-07T05:31:40;9.3;;;4.5;;
58306;SDS011;44116;50.884;4.768;2022-08-07T05:33:39;6.5;;;4.8;;
58306;SDS011;44116;50.884;4.768;2022-08-07T05:35:40;7.4;;;5.2;;
58306;SDS011;44116;50.884;4.768;2022-08-07T05:37:39;6.9;;;5.0;;
58306;SDS011;44116;50.884;4.768;2022-08-07T05:39:39;8.8;;;5.4;;
58306;SDS011;44116;50.884;4.768;2022-08-07T05:43:39;8.5;;;5.5;;
58306;SDS011;44116;50.884;4.768;2022-08-07T05:45:39;8.4;;;5.9;;
58306;SDS011;44116;50.884;4.768;2022-08-07T05:47:39;8.3;;;6.1;;
58306;SDS011;44116;50.884;4.768;2022-08-07T05:49:39;7.6;;;6.0;;
58306;SDS011;44116;50.884;4.768;2022-08-07T05:51:38;9.1;;;6.2;;
58306;SDS011;44116;50.884;4.768;2022-08-07T05:53:38;9.3;;;6.6;;
58306;SDS011;44116;50.884;4.768;2022-08-07T05:55:38;7.4;;;5.9;;
58306;SDS011;44116;50.884;4.768;2022-08-07T05:57:39;8.2;;;5.6;;
58306;SDS011;44116;50.884;4.768;2022-08-07T05:59:39;8.9;;;6.0;;
58306;SDS011;44116;50.884;4.768;2022-08-07T06:01:37;9.6;;;6.6;;
58306;SDS011;44116;50.884;4.768;2022-08-07T06:03:38;8.4;;;5.8;;
58306;SDS011;44116;50.884;4.768;2022-08-07T06:05:37;9.2;;;6.3;;
58306;SDS011;44116;50.884;4.768;2022-08-07T06:07:38;11.9;;;7.0;;
58306;SDS011;44116;50.884;4.768;2022-08-07T06:09:37;9.1;;;6.5;;
58306;SDS011;44116;50.884;4.768;2022-08-07T06:11:37;13.2;;;7.3;;
58306;SDS011;44116;50.884;4.768;2022-08-07T06:13:37;10.2;;;7.0;;
58306;SDS011;44116;50.884;4.768;2022-08-07T06:15:38;9.6;;;6.5;;
58306;SDS011;44116;50.884;4.768;2022-08-07T06:17:36;10.4;;;6.7;;
58306;SDS011;44116;50.884;4.768;2022-08-07T06:19:37;13.8;;;6.9;;
58306;SDS011;44116;50.884;4.768;2022-08-07T06:21:36;11.3;;;6.7;;
58306;SDS011;44116;50.884;4.768;2022-08-07T06:23:36;9.9;;;6.6;;
58306;SDS011;44116;50.884;4.768;2022-08-07T06:25:38;10.1;;;7.1;;
58306;SDS011;44116;50.884;4.768;2022-08-07T06:29:35;11.0;;;6.8;;
58306;SDS011;44116;50.884;4.768;2022-08-07T06:31:35;10.6;;;7.0;;
58306;SDS011;44116;50.884;4.768;2022-08-07T06:33:35;10.3;;;6.8;;
58306;SDS011;44116;50.884;4.768;2022-08-07T06:35:35;10.1;;;7.4;;
58306;SDS011;44116;50.884;4.768;2022-08-07T06:37:35;11.1;;;7.0;;
58306;SDS011;44116;50.884;4.768;2022-08-07T06:39:35;9.5;;;7.2;;
58306;SDS011;44116;50.884;4.768;2022-08-07T06:41:39;10.2;;;7.0;;
58306;SDS011;44116;50.884;4.768;2022-08-07T06:43:35;10.1;;;7.3;;
58306;SDS011;44116;50.884;4.768;2022-08-07T06:45:35;8.9;;;7.1;;
58306;SDS011;44116;50.884;4.768;2022-08-07T06:47:35;12.9;;;7.4;;
58306;SDS011;44116;50.884;4.768;2022-08-07T06:49:34;9.2;;;7.1;;
58306;SDS011;44116;50.884;4.768;2022-08-07T06:51:35;10.8;;;7.3;;
58306;SDS011;44116;50.884;4.768;2022-08-07T06:53:35;11.2;;;6.9;;
58306;SDS011;44116;50.884;4.768;2022-08-07T06:55:34;10.6;;;6.8;;
58306;SDS011;44116;50.884;4.768;2022-08-07T06:57:35;11.3;;;7.2;;
58306;SDS011;44116;50.884;4.768;2022-08-07T06:59:38;9.4;;;6.8;;
58306;SDS011;44116;50.884;4.768;2022-08-07T07:01:35;9.8;;;6.4;;
58306;SDS011;44116;50.884;4.768;2022-08-07T07:03:36;9.5;;;6.6;;
58306;SDS011;44116;50.884;4.768;2022-08-07T07:05:34;10.0;;;5.9;;
58306;SDS011;44116;50.884;4.768;2022-08-07T07:07:33;9.0;;;5.7;;
58306;SDS011;44116;50.884;4.768;2022-08-07T07:09:33;9.1;;;6.4;;
58306;SDS011;44116;50.884;4.768;2022-08-07T07:11:33;9.7;;;6.3;;
58306;SDS011;44116;50.884;4.768;2022-08-07T07:15:39;9.6;;;6.1;;
58306;SDS011;44116;50.884;4.768;2022-08-07T07:17:38;7.9;;;5.9;;
58306;SDS011;44116;50.884;4.768;2022-08-07T07:19:39;9.9;;;6.3;;
58306;SDS011;44116;50.884;4.768;2022-08-07T07:21:37;8.5;;;5.8;;
58306;SDS011;44116;50.884;4.768;2022-08-07T07:23:33;10.6;;;6.2;;
58306;SDS011;44116;50.884;4.768;2022-08-07T07:25:33;8.8;;;6.1;;
58306;SDS011;44116;50.884;4.768;2022-08-07T07:27:39;7.4;;;5.6;;
58306;SDS011;44116;50.884;4.768;2022-08-07T07:29:37;7.2;;;5.4;;
58306;SDS011;44116;50.884;4.768;2022-08-07T07:31:34;9.9;;;5.8;;
58306;SDS011;44116;50.884;4.768;2022-08-07T07:35:34;7.6;;;5.6;;
58306;SDS011;44116;50.884;4.768;2022-08-07T07:37:33;7.8;;;5.4;;
58306;SDS011;44116;50.884;4.768;2022-08-07T07:39:34;8.6;;;5.1;;
58306;SDS011;44116;50.884;4.768;2022-08-07T07:41:33;8.2;;;4.8;;
58306;SDS011;44116;50.884;4.768;2022-08-07T07:45:32;9.1;;;5.0;;
58306;SDS011;44116;50.884;4.768;2022-08-07T07:49:33;7.5;;;4.9;;
58306;SDS011;44116;50.884;4.768;2022-08-07T07:51:34;8.0;;;5.1;;
58306;SDS011;44116;50.884;4.768;2022-08-07T07:53:33;7.9;;;4.6;;
58306;SDS011;44116;50.884;4.768;2022-08-07T07:55:33;8.6;;;5.5;;
58306;SDS011;44116;50.884;4.768;2022-08-07T07:57:32;7.6;;;4.4;;
58306;SDS011;44116;50.884;4.768;2022-08-07T07:59:33;7.8;;;4.8;;
58306;SDS011;44116;50.884;4.768;2022-08-07T08:03:33;9.0;;;5.1;;
58306;SDS011;44116;50.884;4.768;2022-08-07T08:05:35;8.4;;;4.9;;
58306;SDS011;44116;50.884;4.768;2022-08-07T08:07:32;9.1;;;4.3;;
58306;SDS011;44116;50.884;4.768;2022-08-07T08:11:31;8.6;;;4.5;;
58306;SDS011;44116;50.884;4.768;2022-08-07T08:13:32;6.5;;;4.0;;
58306;SDS011;44116;50.884;4.768;2022-08-07T08:15:35;6.5;;;3.9;;
58306;SDS011;44116;50.884;4.768;2022-08-07T08:17:34;8.2;;;4.2;;
58306;SDS011;44116;50.884;4.768;2022-08-07T08:21:32;6.2;;;3.8;;
58306;SDS011;44116;50.884;4.768;2022-08-07T08:27:35;6.4;;;4.2;;
58306;SDS011;44116;50.884;4.768;2022-08-07T08:31:33;6.0;;;3.5;;
58306;SDS011;44116;50.884;4.768;2022-08-07T08:33:32;6.4;;;4.0;;
58306;SDS011;44116;50.884;4.768;2022-08-07T08:35:33;6.4;;;3.9;;
58306;SDS011;44116;50.884;4.768;2022-08-07T08:37:34;8.4;;;3.7;;
58306;SDS011;44116;50.884;4.768;2022-08-07T08:39:32;6.9;;;3.4;;
58306;SDS011;44116;50.884;4.768;2022-08-07T08:41:42;7.3;;;3.3;;
58306;SDS011;44116;50.884;4.768;2022-08-07T08:43:44;5.4;;;3.4;;
58306;SDS011;44116;50.884;4.768;2022-08-07T08:45:43;7.5;;;3.1;;
58306;SDS011;44116;50.884;4.768;2022-08-07T08:47:37;5.9;;;3.2;;
58306;SDS011;44116;50.884;4.768;2022-08-07T08:49:37;5.8;;;2.9;;
58306;SDS011;44116;50.884;4.768;2022-08-07T08:53:35;4.6;;;2.5;;
58306;SDS011;44116;50.884;4.768;2022-08-07T08:55:36;4.4;;;2.6;;
58306;SDS011;44116;50.884;4.768;2022-08-07T08:59:38;4.7;;;2.4;;
58306;SDS011;44116;50.884;4.768;2022-08-07T09:01:36;5.0;;;2.8;;
58306;SDS011;44116;50.884;4.768;2022-08-07T09:03:36;4.9;;;2.5;;
58306;SDS011;44116;50.884;4.768;2022-08-07T09:05:39;4.4;;;2.4;;
58306;SDS011;44116;50.884;4.768;2022-08-07T09:07:35;4.6;;;3.0;;
58306;SDS011;44116;50.884;4.768;2022-08-07T09:11:37;4.8;;;2.7;;
58306;SDS011;44116;50.884;4.768;2022-08-07T09:13:36;3.9;;;2.3;;
58306;SDS011;44116;50.884;4.768;2022-08-07T09:19:43;5.9;;;2.4;;
58306;SDS011;44116;50.884;4.768;2022-08-07T09:21:34;6.3;;;2.9;;
58306;SDS011;44116;50.884;4.768;2022-08-07T09:23:42;5.9;;;2.5;;
58306;SDS011;44116;50.884;4.768;2022-08-07T09:25:38;4.9;;;2.7;;
58306;SDS011;44116;50.884;4.768;2022-08-07T09:27:39;4.8;;;2.4;;
58306;SDS011;44116;50.884;4.768;2022-08-07T09:29:39;5.5;;;2.7;;
58306;SDS011;44116;50.884;4.768;2022-08-07T09:35:39;5.7;;;2.6;;
58306;SDS011;44116;50.884;4.768;2022-08-07T09:37:36;4.6;;;2.8;;
58306;SDS011;44116;50.884;4.768;2022-08-07T09:39:39;4.9;;;2.2;;
58306;SDS011;44116;50.884;4.768;2022-08-07T09:43:45;3.6;;;2.1;;
58306;SDS011;44116;50.884;4.768;2022-08-07T09:45:38;4.1;;;2.0;;
58306;SDS011;44116;50.884;4.768;2022-08-07T09:47:37;5.1;;;1.8;;
58306;SDS011;44116;50.884;4.768;2022-08-07T09:49:40;3.6;;;2.2;;
58306;SDS011;44116;50.884;4.768;2022-08-07T09:51:45;5.4;;;2.3;;
58306;SDS011;44116;50.884;4.768;2022-08-07T09:53:34;6.0;;;2.2;;
58306;SDS011;44116;50.884;4.768;2022-08-07T09:57:49;4.4;;;2.1;;
58306;SDS011;44116;50.884;4.768;2022-08-07T09:59:40;4.1;;;2.3;;
58306;SDS011;44116;50.884;4.768;2022-08-07T10:01:46;4.7;;;1.9;;
58306;SDS011;44116;50.884;4.768;2022-08-07T10:03:40;4.2;;;2.0;;
58306;SDS011;44116;50.884;4.768;2022-08-07T10:07:39;3.9;;;1.8;;
58306;SDS011;44116;50.884;4.768;2022-08-07T10:09:43;4.5;;;2.2;;
58306;SDS011;44116;50.884;4.768;2022-08-07T10:11:50;4.7;;;2.4;;
58306;SDS011;44116;50.884;4.768;2022-08-07T10:13:39;5.9;;;2.2;;
58306;SDS011;44116;50.884;4.768;2022-08-07T10:15:37;4.4;;;2.1;;
58306;SDS011;44116;50.884;4.768;2022-08-07T10:19:44;5.2;;;2.1;;
58306;SDS011;44116;50.884;4.768;2022-08-07T10:21:39;5.6;;;2.3;;
58306;SDS011;44116;50.884;4.768;2022-08-07T10:23:41;6.4;;;2.8;;
58306;SDS011;44116;50.884;4.768;2022-08-07T10:25:46;4.2;;;2.2;;
58306;SDS011;44116;50.884;4.768;2022-08-07T10:27:44;5.5;;;2.6;;
58306;SDS011;44116;50.884;4.768;2022-08-07T10:29:46;4.0;;;2.4;;
58306;SDS011;44116;50.884;4.768;2022-08-07T10:31:45;5.6;;;2.5;;
58306;SDS011;44116;50.884;4.768;2022-08-07T10:33:44;6.2;;;2.3;;
58306;SDS011;44116;50.884;4.768;2022-08-07T10:35:43;4.7;;;2.4;;
58306;SDS011;44116;50.884;4.768;2022-08-07T10:37:39;4.5;;;2.3;;
58306;SDS011;44116;50.884;4.768;2022-08-07T10:41:34;4.8;;;2.7;;
58306;SDS011;44116;50.884;4.768;2022-08-07T10:43:36;5.3;;;2.3;;
58306;SDS011;44116;50.884;4.768;2022-08-07T10:45:36;3.9;;;2.2;;
58306;SDS011;44116;50.884;4.768;2022-08-07T10:47:38;5.2;;;2.3;;
58306;SDS011;44116;50.884;4.768;2022-08-07T10:51:37;4.2;;;2.0;;
58306;SDS011;44116;50.884;4.768;2022-08-07T10:53:38;3.7;;;1.9;;
58306;SDS011;44116;50.884;4.768;2022-08-07T11:03:37;3.8;;;2.2;;
58306;SDS011;44116;50.884;4.768;2022-08-07T11:05:41;4.1;;;2.3;;
58306;SDS011;44116;50.884;4.768;2022-08-07T11:09:38;4.4;;;2.4;;
58306;SDS011;44116;50.884;4.768;2022-08-07T11:11:36;4.2;;;2.1;;
58306;SDS011;44116;50.884;4.768;2022-08-07T11:13:36;3.3;;;2.2;;
58306;SDS011;44116;50.884;4.768;2022-08-07T11:15:38;4.1;;;2.0;;
58306;SDS011;44116;50.884;4.768;2022-08-07T11:17:40;5.4;;;2.2;;
58306;SDS011;44116;50.884;4.768;2022-08-07T11:19:37;4.3;;;2.1;;
58306;SDS011;44116;50.884;4.768;2022-08-07T11:21:38;4.2;;;2.2;;
58306;SDS011;44116;50.884;4.768;2022-08-07T11:23:40;4.3;;;1.9;;
58306;SDS011;44116;50.884;4.768;2022-08-07T11:25:35;4.1;;;2.2;;
58306;SDS011;44116;50.884;4.768;2022-08-07T11:27:39;4.1;;;2.3;;
58306;SDS011;44116;50.884;4.768;2022-08-07T11:31:40;4.7;;;2.5;;
58306;SDS011;44116;50.884;4.768;2022-08-07T11:33:45;4.0;;;2.0;;
58306;SDS011;44116;50.884;4.768;2022-08-07T11:35:40;5.4;;;2.2;;
58306;SDS011;44116;50.884;4.768;2022-08-07T11:39:46;3.6;;;2.3;;
58306;SDS011;44116;50.884;4.768;2022-08-07T11:41:39;4.6;;;2.5;;
58306;SDS011;44116;50.884;4.768;2022-08-07T11:43:42;4.0;;;2.4;;
58306;SDS011;44116;50.884;4.768;2022-08-07T11:45:49;4.6;;;2.3;;
58306;SDS011;44116;50.884;4.768;2022-08-07T11:47:49;4.2;;;2.1;;
58306;SDS011;44116;50.884;4.768;2022-08-07T11:49:50;3.4;;;2.0;;
58306;SDS011;44116;50.884;4.768;2022-08-07T11:51:45;4.9;;;2.2;;
58306;SDS011;44116;50.884;4.768;2022-08-07T11:57:40;5.5;;;2.1;;
58306;SDS011;44116;50.884;4.768;2022-08-07T11:59:46;4.6;;;2.3;;
58306;SDS011;44116;50.884;4.768;2022-08-07T12:01:45;4.5;;;2.5;;
58306;SDS011;44116;50.884;4.768;2022-08-07T12:03:49;3.1;;;2.0;;
58306;SDS011;44116;50.884;4.768;2022-08-07T12:05:43;3.7;;;2.1;;
58306;SDS011;44116;50.884;4.768;2022-08-07T12:07:39;4.6;;;2.4;;
58306;SDS011;44116;50.884;4.768;2022-08-07T12:09:40;6.2;;;2.5;;
58306;SDS011;44116;50.884;4.768;2022-08-07T12:11:41;3.6;;;2.0;;
58306;SDS011;44116;50.884;4.768;2022-08-07T12:13:40;4.2;;;2.3;;
58306;SDS011;44116;50.884;4.768;2022-08-07T12:15:46;3.8;;;2.2;;
58306;SDS011;44116;50.884;4.768;2022-08-07T12:19:44;5.0;;;2.1;;
58306;SDS011;44116;50.884;4.768;2022-08-07T12:23:43;4.5;;;2.0;;
58306;SDS011;44116;50.884;4.768;2022-08-07T12:25:40;5.1;;;2.1;;
58306;SDS011;44116;50.884;4.768;2022-08-07T12:27:41;5.8;;;2.2;;
58306;SDS011;44116;50.884;4.768;2022-08-07T12:31:40;4.4;;;2.5;;
58306;SDS011;44116;50.884;4.768;2022-08-07T12:33:37;2.9;;;2.0;;
58306;SDS011;44116;50.884;4.768;2022-08-07T12:35:38;3.8;;;2.1;;
58306;SDS011;44116;50.884;4.768;2022-08-07T12:39:39;5.4;;;2.4;;
58306;SDS011;44116;50.884;4.768;2022-08-07T12:41:38;3.5;;;2.1;;
58306;SDS011;44116;50.884;4.768;2022-08-07T12:45:46;3.0;;;2.2;;
58306;SDS011;44116;50.884;4.768;2022-08-07T12:47:44;5.3;;;2.5;;
58306;SDS011;44116;50.884;4.768;2022-08-07T12:49:43;3.0;;;1.9;;
58306;SDS011;44116;50.884;4.768;2022-08-07T12:51:40;4.0;;;2.2;;
58306;SDS011;44116;50.884;4.768;2022-08-07T12:55:41;2.5;;;1.8;;
58306;SDS011;44116;50.884;4.768;2022-08-07T12:57:38;5.7;;;2.2;;
58306;SDS011;44116;50.884;4.768;2022-08-07T13:01:51;2.8;;;2.1;;
58306;SDS011;44116;50.884;4.768;2022-08-07T13:03:54;3.1;;;1.9;;
58306;SDS011;44116;50.884;4.768;2022-08-07T13:05:52;5.5;;;2.1;;
58306;SDS011;44116;50.884;4.768;2022-08-07T13:07:56;5.9;;;2.3;;
58306;SDS011;44116;50.884;4.768;2022-08-07T13:09:48;4.7;;;2.2;;
58306;SDS011;44116;50.884;4.768;2022-08-07T13:11:48;3.9;;;2.0;;
58306;SDS011;44116;50.884;4.768;2022-08-07T13:13:50;4.8;;;2.1;;
58306;SDS011;44116;50.884;4.768;2022-08-07T13:15:48;3.3;;;1.9;;
58306;SDS011;44116;50.884;4.768;2022-08-07T13:17:45;4.4;;;2.0;;
58306;SDS011;44116;50.884;4.768;2022-08-07T13:19:46;5.2;;;2.4;;
58306;SDS011;44116;50.884;4.768;2022-08-07T13:21:42;3.4;;;2.3;;
58306;SDS011;44116;50.884;4.768;2022-08-07T13:23:46;4.7;;;2.2;;
58306;SDS011;44116;50.884;4.768;2022-08-07T13:27:44;2.9;;;2.0;;
58306;SDS011;44116;50.884;4.768;2022-08-07T13:29:48;5.0;;;2.2;;
58306;SDS011;44116;50.884;4.768;2022-08-07T13:31:45;4.4;;;2.3;;
58306;SDS011;44116;50.884;4.768;2022-08-07T13:33:47;5.1;;;2.1;;
58306;SDS011;44116;50.884;4.768;2022-08-07T13:35:43;3.1;;;2.2;;
58306;SDS011;44116;50.884;4.768;2022-08-07T13:37:47;4.0;;;2.6;;
58306;SDS011;44116;50.884;4.768;2022-08-07T13:39:46;3.3;;;2.3;;
58306;SDS011;44116;50.884;4.768;2022-08-07T13:41:43;5.1;;;2.2;;
58306;SDS011;44116;50.884;4.768;2022-08-07T13:43:43;4.0;;;2.4;;
58306;SDS011;44116;50.884;4.768;2022-08-07T13:45:44;3.9;;;2.3;;
58306;SDS011;44116;50.884;4.768;2022-08-07T13:47:42;5.3;;;2.5;;
58306;SDS011;44116;50.884;4.768;2022-08-07T13:49:45;4.1;;;2.3;;
58306;SDS011;44116;50.884;4.768;2022-08-07T13:51:44;4.3;;;2.2;;
58306;SDS011;44116;50.884;4.768;2022-08-07T13:53:50;3.3;;;2.3;;
58306;SDS011;44116;50.884;4.768;2022-08-07T13:55:42;4.1;;;2.2;;
58306;SDS011;44116;50.884;4.768;2022-08-07T13:57:45;5.9;;;2.4;;
58306;SDS011;44116;50.884;4.768;2022-08-07T13:59:44;4.7;;;2.5;;
58306;SDS011;44116;50.884;4.768;2022-08-07T14:01:47;4.2;;;2.2;;
58306;SDS011;44116;50.884;4.768;2022-08-07T14:03:44;4.1;;;2.3;;
58306;SDS011;44116;50.884;4.768;2022-08-07T14:05:43;3.8;;;2.4;;
58306;SDS011;44116;50.884;4.768;2022-08-07T14:07:44;2.9;;;2.1;;
58306;SDS011;44116;50.884;4.768;2022-08-07T14:17:44;2.9;;;1.9;;
58306;SDS011;44116;50.884;4.768;2022-08-07T14:19:54;4.0;;;2.1;;
58306;SDS011;44116;50.884;4.768;2022-08-07T14:21:46;3.3;;;2.3;;
58306;SDS011;44116;50.884;4.768;2022-08-07T14:23:47;3.0;;;2.2;;
58306;SDS011;44116;50.884;4.768;2022-08-07T14:29:47;5.4;;;2.1;;
58306;SDS011;44116;50.884;4.768;2022-08-07T14:31:46;5.4;;;2.3;;
58306;SDS011;44116;50.884;4.768;2022-08-07T14:33:45;3.9;;;1.9;;
58306;SDS011;44116;50.884;4.768;2022-08-07T14:35:45;3.6;;;2.1;;
58306;SDS011;44116;50.884;4.768;2022-08-07T14:39:46;2.5;;;2.0;;
58306;SDS011;44116;50.884;4.768;2022-08-07T14:41:47;3.7;;;2.1;;
58306;SDS011;44116;50.884;4.768;2022-08-07T14:43:46;4.3;;;2.3;;